createdAt,value
2023-11-28T00:01:40.314Z,2.94
2023-11-28T00:04:07.214Z,2.97
2023-11-28T00:06:34.543Z,2.99
2023-11-28T00:09:01.499Z,3.01
2023-11-28T00:11:28.323Z,3.01
2023-11-28T00:13:55.301Z,3.05
2023-11-28T00:16:22.161Z,2.93
2023-11-28T00:18:49.636Z,2.89
2023-11-28T00:21:16.597Z,2.90
2023-11-28T00:23:44.008Z,2.90
2023-11-28T00:26:11.099Z,2.95
2023-11-28T00:28:43.362Z,2.98
2023-11-28T00:31:10.576Z,2.98
2023-11-28T00:33:37.659Z,3.01
2023-11-28T00:36:04.832Z,3.01
2023-11-28T00:38:32.020Z,3.03
2023-11-28T00:40:58.884Z,3.04
2023-11-28T00:43:25.839Z,2.95
2023-11-28T00:45:52.769Z,2.88
2023-11-28T00:48:20.579Z,2.93
2023-11-28T00:50:47.497Z,2.96
2023-11-28T00:53:14.264Z,2.98
2023-11-28T00:55:41.230Z,2.97
2023-11-28T00:58:11.347Z,2.87
2023-11-28T01:00:41.278Z,2.88
2023-11-28T01:03:08.399Z,2.88
2023-11-28T01:05:35.303Z,2.88
2023-11-28T01:08:02.188Z,2.91
2023-11-28T01:10:29.142Z,2.94
2023-11-28T01:12:56.075Z,2.99
2023-11-28T01:15:23.636Z,2.92
2023-11-28T01:17:50.652Z,2.80
2023-11-28T01:20:17.516Z,2.80
2023-11-28T01:22:44.569Z,2.87
2023-11-28T01:25:11.903Z,2.89
2023-11-28T01:27:39.339Z,2.93
2023-11-28T01:30:07.394Z,2.97
2023-11-28T01:32:34.841Z,2.89
2023-11-28T01:35:02.882Z,2.86
2023-11-28T01:37:29.757Z,2.94
2023-11-28T01:39:57.298Z,2.99
2023-11-28T01:42:24.118Z,3.00
2023-11-28T01:44:51.102Z,2.97
2023-11-28T01:47:18.054Z,3.00
2023-11-28T01:49:45.247Z,3.08
2023-11-28T01:52:12.779Z,3.10
2023-11-28T01:54:42.653Z,3.05
2023-11-28T01:57:11.009Z,3.12
2023-11-28T01:59:39.547Z,3.18
2023-11-28T02:02:08.822Z,3.17
2023-11-28T02:04:36.136Z,3.15
2023-11-28T02:07:03.494Z,3.20
2023-11-28T02:09:30.984Z,3.28
2023-11-28T02:11:58.670Z,3.32
2023-11-28T02:14:25.616Z,3.34
2023-11-28T02:16:54.464Z,3.29
2023-11-28T02:19:21.574Z,3.33
2023-11-28T02:21:49.987Z,3.38
2023-11-28T02:24:18.976Z,3.40
2023-11-28T02:26:46.016Z,3.40
2023-11-28T02:29:13.086Z,3.41
2023-11-28T02:31:40.077Z,3.46
2023-11-28T02:34:07.241Z,3.45
2023-11-28T02:36:34.257Z,3.30
2023-11-28T02:39:01.137Z,3.24
2023-11-28T02:41:28.046Z,3.32
2023-11-28T02:43:54.877Z,3.37
2023-11-28T02:46:21.990Z,3.39
2023-11-28T02:48:49.112Z,3.32
2023-11-28T02:51:21.487Z,3.35
2023-11-28T02:53:48.732Z,3.37
2023-11-28T02:56:15.659Z,3.39
2023-11-28T02:58:42.650Z,3.44
2023-11-28T03:01:09.704Z,3.46
2023-11-28T03:03:36.827Z,3.47
2023-11-28T03:06:04.526Z,3.50
2023-11-28T03:08:31.411Z,3.52
2023-11-28T03:10:58.322Z,3.54
2023-11-28T03:13:25.236Z,3.48
2023-11-28T03:15:53.773Z,3.49
2023-11-28T03:18:20.638Z,3.51
2023-11-28T03:20:47.546Z,3.49
2023-11-28T03:23:14.378Z,3.52
2023-11-28T03:25:41.239Z,3.56
2023-11-28T03:28:08.164Z,3.47
2023-11-28T03:30:34.972Z,3.51
2023-11-28T03:33:01.855Z,3.46
2023-11-28T03:35:30.120Z,3.38
2023-11-28T03:37:58.651Z,3.41
2023-11-28T03:40:25.642Z,3.41
2023-11-28T03:42:52.905Z,3.35
2023-11-28T03:45:19.757Z,3.39
2023-11-28T03:47:47.525Z,3.44
2023-11-28T03:50:14.500Z,3.50
2023-11-28T03:52:42.819Z,3.53
2023-11-28T03:55:11.506Z,3.52
2023-11-28T03:57:38.712Z,3.55
2023-11-28T04:00:06.786Z,3.59
2023-11-28T04:02:33.883Z,3.60
2023-11-28T04:05:06.072Z,3.59
2023-11-28T04:07:33.311Z,3.61
2023-11-28T04:10:00.646Z,3.64
2023-11-28T04:12:27.737Z,3.59
2023-11-28T04:14:54.550Z,3.57
2023-11-28T04:17:21.673Z,3.56
2023-11-28T04:19:48.676Z,3.50
2023-11-28T04:22:15.520Z,3.50
2023-11-28T04:24:45.489Z,3.55
2023-11-28T04:27:14.381Z,3.56
2023-11-28T04:29:42.632Z,3.56
2023-11-28T04:32:13.159Z,3.57
2023-11-28T04:34:40.213Z,3.61
2023-11-28T04:37:07.444Z,3.65
2023-11-28T04:39:37.582Z,3.64
2023-11-28T04:42:04.647Z,3.63
2023-11-28T04:44:31.446Z,3.62
2023-11-28T04:46:58.562Z,3.62
2023-11-28T04:49:25.540Z,3.60
2023-11-28T04:51:52.967Z,3.62
2023-11-28T04:54:22.009Z,3.57
2023-11-28T04:56:48.986Z,3.55
2023-11-28T04:59:16.152Z,3.56
2023-11-28T05:01:46.900Z,3.56
2023-11-28T05:04:15.010Z,3.61
2023-11-28T05:06:42.178Z,3.63
2023-11-28T05:09:10.026Z,3.61
2023-11-28T05:11:36.930Z,3.63
2023-11-28T05:14:05.101Z,3.64
2023-11-28T05:16:41.526Z,3.67
2023-11-28T05:19:16.544Z,3.69
2023-11-28T05:21:43.546Z,3.68
2023-11-28T05:24:10.902Z,3.63
2023-11-28T05:26:37.891Z,3.63
2023-11-28T05:29:05.024Z,3.59
2023-11-28T05:31:31.988Z,3.57
2023-11-28T05:33:58.995Z,3.58
2023-11-28T05:36:27.734Z,3.58
2023-11-28T05:38:57.061Z,3.59
2023-11-28T05:41:25.054Z,3.62
2023-11-28T05:43:52.626Z,3.64
2023-11-28T05:46:19.648Z,3.66
2023-11-28T05:48:46.846Z,3.69
2023-11-28T05:51:14.947Z,3.71
2023-11-28T05:53:42.688Z,3.72
2023-11-28T05:56:11.830Z,3.66
2023-11-28T05:58:39.063Z,3.62
2023-11-28T06:01:09.118Z,3.54
2023-11-28T06:03:36.340Z,3.56
2023-11-28T06:06:04.108Z,3.59
2023-11-28T06:09:03.699Z,3.60
2023-11-28T06:11:30.615Z,3.61
2023-11-28T06:13:58.909Z,3.58
2023-11-28T06:16:26.001Z,3.58
2023-11-28T06:18:53.126Z,3.62
2023-11-28T06:21:20.156Z,3.56
2023-11-28T06:23:47.152Z,3.58
2023-11-28T06:26:14.097Z,3.60
2023-11-28T06:28:42.033Z,3.65
2023-11-28T06:31:09.151Z,3.71
2023-11-28T06:33:36.132Z,3.75
2023-11-28T06:36:04.170Z,3.81
2023-11-28T06:38:31.295Z,3.84
2023-11-28T06:40:58.323Z,3.82
2023-11-28T06:43:25.334Z,3.84
2023-11-28T06:45:53.771Z,3.88
2023-11-28T06:48:20.787Z,3.91
2023-11-28T06:50:47.614Z,3.92
2023-11-28T06:53:14.737Z,3.93
2023-11-28T06:55:42.428Z,3.98
2023-11-28T06:58:09.274Z,4.01
2023-11-28T07:00:36.752Z,4.07
2023-11-28T07:03:07.424Z,4.01
2023-11-28T07:05:34.356Z,3.98
2023-11-28T07:08:02.346Z,3.97
2023-11-28T07:10:29.818Z,3.98
2023-11-28T07:13:01.468Z,3.98
2023-11-28T07:15:28.585Z,4.07
2023-11-28T07:17:56.049Z,4.13
2023-11-28T07:20:23.104Z,4.20
2023-11-28T07:22:49.967Z,4.28
2023-11-28T07:25:17.683Z,4.30
2023-11-28T07:27:44.719Z,4.34
2023-11-28T07:30:12.400Z,4.38
2023-11-28T07:32:39.356Z,4.42
2023-11-28T07:35:07.220Z,4.49
2023-11-28T07:37:34.190Z,4.49
2023-11-28T07:40:01.274Z,4.45
2023-11-28T07:42:28.652Z,4.48
2023-11-28T07:44:55.759Z,4.52
2023-11-28T07:47:22.794Z,4.54
2023-11-28T07:49:50.136Z,4.53
2023-11-28T07:55:55.775Z,4.54
2023-11-28T07:58:39.985Z,4.58
2023-11-28T08:01:07.038Z,4.58
2023-11-28T08:03:34.009Z,4.60
2023-11-28T08:06:04.181Z,4.64
2023-11-28T08:08:31.869Z,4.66
2023-11-28T08:11:00.701Z,4.69
2023-11-28T08:13:29.387Z,4.72
2023-11-28T08:15:59.484Z,4.75
2023-11-28T08:18:27.126Z,4.80
2023-11-28T08:20:54.125Z,4.82
2023-11-28T08:23:21.051Z,4.80
2023-11-28T08:25:48.245Z,4.78
2023-11-28T08:28:15.354Z,4.79
2023-11-28T08:30:50.267Z,4.77
2023-11-28T08:33:20.282Z,4.80
2023-11-28T08:35:49.826Z,4.84
2023-11-28T08:38:17.169Z,4.89
2023-11-28T08:40:44.401Z,4.91
2023-11-28T08:43:11.462Z,4.86
2023-11-28T08:45:38.675Z,4.89
2023-11-28T08:48:05.944Z,4.93
2023-11-28T08:50:33.006Z,4.98
2023-11-28T08:53:00.018Z,5.02
2023-11-28T08:55:26.838Z,5.04
2023-11-28T08:57:53.644Z,5.04
2023-11-28T09:00:21.159Z,5.06
2023-11-28T09:02:48.213Z,5.08
2023-11-28T09:05:16.271Z,5.11
2023-11-28T09:07:43.218Z,5.16
2023-11-28T09:10:10.397Z,5.22
2023-11-28T09:12:37.490Z,5.28
2023-11-28T09:15:05.647Z,5.24
2023-11-28T09:17:35.959Z,5.24
2023-11-28T09:20:03.231Z,5.28
2023-11-28T09:22:30.176Z,5.28
2023-11-28T09:24:57.048Z,5.36
2023-11-28T09:27:24.010Z,5.47
2023-11-28T09:29:52.694Z,5.55
2023-11-28T09:32:21.602Z,5.57
2023-11-28T09:34:48.525Z,5.63
2023-11-28T09:37:15.498Z,5.67
2023-11-28T09:39:42.941Z,5.74
2023-11-28T09:42:13.983Z,5.75
2023-11-28T09:44:46.860Z,5.78
2023-11-28T09:47:17.350Z,5.80
2023-11-28T09:49:44.578Z,5.77
2023-11-28T09:52:14.949Z,5.77
2023-11-28T09:54:42.084Z,5.82
2023-11-28T09:57:10.218Z,5.88
2023-11-28T09:59:45.068Z,5.93
2023-11-28T10:02:16.207Z,5.93
2023-11-28T10:04:43.697Z,5.89
2023-11-28T10:07:12.907Z,5.90
2023-11-28T10:09:48.152Z,5.94
2023-11-28T10:12:17.195Z,6.03
2023-11-28T10:14:47.868Z,6.09
2023-11-28T10:17:17.104Z,6.15
2023-11-28T10:19:46.296Z,6.20
2023-11-28T10:22:16.679Z,6.26
2023-11-28T10:24:43.695Z,6.30
2023-11-28T10:27:14.208Z,6.35
2023-11-28T10:29:40.986Z,6.45
2023-11-28T10:32:08.443Z,6.55
2023-11-28T10:34:38.134Z,6.61
2023-11-28T10:37:05.190Z,6.64
2023-11-28T10:39:33.560Z,6.64
2023-11-28T10:42:04.516Z,6.64
2023-11-28T10:44:31.724Z,6.63
2023-11-28T10:47:00.528Z,6.65
2023-11-28T10:49:27.543Z,6.69
2023-11-28T10:51:57.435Z,6.73
2023-11-28T10:54:26.857Z,6.74
2023-11-28T10:56:58.055Z,6.80
2023-11-28T10:59:38.553Z,6.84
2023-11-28T11:02:06.340Z,6.84
2023-11-28T11:04:34.090Z,6.81
2023-11-28T11:07:01.745Z,6.84
2023-11-28T11:09:29.372Z,6.85
2023-11-28T11:11:57.999Z,6.89
2023-11-28T11:14:53.585Z,6.94
2023-11-28T11:17:32.669Z,7.07
2023-11-28T11:20:01.368Z,7.20
2023-11-28T11:22:33.958Z,7.35
2023-11-28T11:25:01.795Z,7.50
2023-11-28T11:27:29.850Z,7.61
2023-11-28T11:29:57.066Z,7.66
2023-11-28T11:32:24.901Z,7.77
2023-11-28T11:34:54.751Z,7.83
2023-11-28T11:37:30.030Z,7.91
2023-11-28T11:40:00.835Z,7.96
2023-11-28T11:42:30.022Z,7.98
2023-11-28T11:45:04.168Z,8.01
2023-11-28T11:47:33.483Z,8.03
2023-11-28T11:50:06.574Z,8.19
2023-11-28T11:52:34.893Z,8.18
2023-11-28T11:55:04.771Z,8.23
2023-11-28T11:57:31.820Z,8.26
2023-11-28T12:00:00.039Z,8.31
2023-11-28T12:02:40.188Z,8.33
2023-11-28T12:05:08.718Z,8.36
2023-11-28T12:07:35.972Z,8.26
2023-11-28T12:10:11.282Z,8.21
2023-11-28T12:12:40.840Z,8.13
2023-11-28T12:15:09.495Z,8.06
2023-11-28T12:17:38.618Z,8.03
2023-11-28T12:20:09.314Z,7.99
2023-11-28T12:22:36.627Z,7.92
2023-11-28T12:25:03.746Z,7.83
2023-11-28T12:27:31.184Z,7.81
2023-11-28T12:29:59.993Z,7.77
2023-11-28T12:32:30.346Z,7.73
2023-11-28T12:34:58.362Z,7.63
2023-11-28T12:37:25.463Z,7.60
2023-11-28T12:39:55.904Z,7.60
2023-11-28T12:42:26.920Z,7.59
2023-11-28T12:45:02.277Z,7.56
2023-11-28T12:47:29.477Z,7.48
2023-11-28T12:49:57.094Z,7.50
2023-11-28T12:52:27.281Z,7.52
2023-11-28T12:54:54.157Z,7.53
2023-11-28T12:57:22.669Z,7.52
2023-11-28T12:59:55.922Z,7.49
2023-11-28T13:02:27.800Z,7.49
2023-11-28T13:04:57.506Z,7.47
2023-11-28T13:07:33.129Z,7.44
2023-11-28T13:10:06.333Z,7.35
2023-11-28T13:12:33.228Z,7.25
2023-11-28T13:15:05.932Z,7.25
2023-11-28T13:17:33.129Z,7.25
2023-11-28T13:20:00.275Z,7.21
2023-11-28T13:22:28.164Z,7.20
2023-11-28T13:24:55.331Z,7.22
2023-11-28T13:27:22.282Z,7.25
2023-11-28T13:29:51.798Z,7.27
2023-11-28T13:32:18.768Z,7.25
2023-11-28T13:34:46.655Z,7.26
2023-11-28T13:37:14.224Z,7.29
2023-11-28T13:39:44.302Z,7.32
2023-11-28T13:42:14.192Z,7.36
2023-11-28T13:44:41.247Z,7.38
2023-11-28T13:47:08.630Z,7.34
2023-11-28T13:49:35.791Z,7.36
2023-11-28T13:52:02.806Z,7.37
2023-11-28T13:54:29.894Z,7.38
2023-11-28T13:56:57.328Z,7.40
2023-11-28T13:59:24.345Z,7.38
2023-11-28T14:01:51.604Z,7.39
2023-11-28T14:04:18.579Z,7.38
2023-11-28T14:06:45.537Z,7.38
2023-11-28T14:09:13.883Z,7.37
2023-11-28T14:11:40.865Z,7.35
2023-11-28T14:14:09.290Z,7.35
2023-11-28T14:16:36.400Z,7.34
2023-11-28T14:19:03.327Z,7.28
2023-11-28T14:21:31.346Z,7.24
2023-11-28T14:23:58.239Z,7.16
2023-11-28T14:26:25.810Z,7.09
2023-11-28T14:28:55.160Z,7.08
2023-11-28T14:31:25.074Z,7.10
2023-11-28T14:33:55.162Z,7.12
2023-11-28T14:36:22.117Z,7.13
2023-11-28T14:38:49.172Z,7.12
2023-11-28T14:41:16.308Z,7.09
2023-11-28T14:43:43.238Z,7.07
2023-11-28T14:46:10.728Z,7.01
2023-11-28T14:48:41.496Z,6.96
2023-11-28T14:51:20.830Z,6.89
2023-11-28T14:53:49.382Z,6.80
2023-11-28T14:56:16.410Z,6.73
2023-11-28T14:58:43.385Z,6.65
2023-11-28T15:01:10.405Z,6.51
2023-11-28T15:03:37.711Z,6.38
2023-11-28T15:06:08.323Z,6.21
2023-11-28T15:08:40.485Z,6.12
2023-11-28T15:11:10.444Z,6.10
2023-11-28T15:13:39.772Z,6.10
2023-11-28T15:16:07.686Z,6.11
2023-11-28T15:18:34.818Z,6.09
2023-11-28T15:21:02.446Z,6.08
2023-11-28T15:23:29.585Z,6.08
2023-11-28T15:25:56.733Z,6.03
2023-11-28T15:28:23.791Z,6.00
2023-11-28T15:30:51.804Z,6.01
2023-11-28T15:33:19.132Z,5.97
2023-11-28T15:35:46.207Z,5.99
2023-11-28T15:38:13.291Z,6.01
2023-11-28T15:40:42.594Z,6.02
2023-11-28T15:43:09.876Z,5.94
2023-11-28T15:45:36.948Z,5.91
2023-11-28T15:48:05.795Z,5.95
2023-11-28T15:50:34.873Z,5.97
2023-11-28T15:53:02.074Z,5.98
2023-11-28T15:55:29.027Z,6.01
2023-11-28T15:57:56.970Z,6.02
2023-11-28T16:00:24.100Z,6.06
2023-11-28T16:02:53.777Z,6.08
2023-11-28T16:05:21.774Z,6.10
2023-11-28T16:07:51.690Z,6.11
2023-11-28T16:10:18.680Z,6.08
2023-11-28T16:12:45.755Z,6.02
2023-11-28T16:15:13.456Z,6.05
2023-11-28T16:17:41.641Z,6.07
2023-11-28T16:20:11.062Z,6.07
2023-11-28T16:22:42.216Z,5.99
2023-11-28T16:25:09.719Z,6.01
2023-11-28T16:27:39.783Z,6.06
2023-11-28T16:30:08.100Z,6.07
2023-11-28T16:32:38.145Z,6.01
2023-11-28T16:35:06.049Z,6.03
2023-11-28T16:37:33.204Z,6.05
2023-11-28T16:40:02.681Z,6.05
2023-11-28T16:42:30.160Z,6.06
2023-11-28T16:45:02.696Z,6.10
2023-11-28T16:47:30.867Z,6.12
2023-11-28T16:49:57.798Z,6.15
2023-11-28T16:52:33.775Z,6.15
2023-11-28T16:55:00.741Z,6.15
2023-11-28T16:57:27.710Z,6.10
2023-11-28T16:59:55.035Z,6.05
2023-11-28T17:02:22.466Z,5.98
2023-11-28T17:04:54.430Z,6.04
2023-11-28T17:07:25.847Z,6.10
2023-11-28T17:09:54.786Z,6.17
2023-11-28T17:12:34.913Z,6.24
2023-11-28T17:15:05.587Z,6.29
2023-11-28T17:17:37.762Z,6.22
2023-11-28T17:20:13.533Z,6.26
2023-11-28T17:22:48.830Z,6.33
2023-11-28T17:25:28.379Z,6.32
2023-11-28T17:28:07.970Z,6.35
2023-11-28T17:30:35.560Z,6.38
2023-11-28T17:33:20.840Z,6.35
2023-11-28T17:35:56.448Z,6.23
2023-11-28T17:38:32.051Z,6.25
2023-11-28T17:41:18.106Z,6.24
2023-11-28T17:43:52.476Z,6.21
2023-11-28T17:46:58.157Z,6.26
2023-11-28T17:49:33.126Z,6.30
2023-11-28T17:52:12.050Z,6.32
2023-11-28T17:54:39.165Z,6.31
2023-11-28T17:57:12.822Z,6.29
2023-11-28T17:59:44.973Z,6.29
2023-11-28T18:02:19.225Z,6.27
2023-11-28T18:04:46.418Z,6.24
2023-11-28T18:07:19.005Z,6.23
2023-11-28T18:09:55.436Z,6.22
2023-11-28T18:12:31.565Z,6.18
2023-11-28T18:15:03.219Z,6.11
2023-11-28T18:20:49.708Z,6.23
2023-11-28T18:23:30.334Z,6.28
2023-11-28T18:26:12.415Z,6.19
2023-11-28T18:28:52.553Z,6.13
2023-11-28T18:31:24.937Z,6.17
2023-11-28T18:33:55.894Z,6.20
2023-11-28T18:36:24.992Z,6.27
2023-11-28T18:38:58.121Z,6.32
2023-11-28T18:41:34.441Z,6.29
2023-11-28T18:44:15.551Z,6.23
2023-11-28T18:46:42.959Z,6.26
2023-11-28T18:49:09.873Z,6.34
2023-11-28T18:51:40.463Z,6.34
2023-11-28T18:54:12.108Z,6.36
2023-11-28T18:56:42.201Z,6.39
2023-11-28T18:59:20.299Z,6.42
2023-11-28T19:01:53.189Z,6.43
2023-11-28T19:04:23.266Z,6.42
2023-11-28T19:06:51.996Z,6.43
2023-11-28T19:09:27.863Z,6.44
2023-11-28T19:12:05.268Z,6.44
2023-11-28T19:14:38.600Z,6.46
2023-11-28T19:19:54.708Z,6.58
2023-11-28T19:22:28.306Z,6.60
2023-11-28T19:24:59.463Z,6.69
2023-11-28T19:27:57.350Z,6.71
2023-11-28T19:30:49.505Z,6.81
2023-11-28T19:33:35.224Z,6.93
2023-11-28T19:36:21.403Z,7.04
2023-11-28T19:39:13.819Z,7.11
2023-11-28T19:41:43.972Z,7.22
2023-11-28T19:44:13.824Z,7.31
2023-11-28T19:46:42.679Z,7.36
2023-11-28T19:49:11.222Z,7.44
2023-11-28T19:51:40.482Z,7.52
2023-11-28T19:54:07.442Z,7.62
2023-11-28T19:56:34.452Z,7.73
2023-11-28T19:59:03.567Z,7.81
2023-11-28T20:01:30.861Z,7.91
2023-11-28T20:03:58.249Z,8.02
2023-11-28T20:06:25.986Z,8.11
2023-11-28T20:08:56.341Z,8.20
2023-11-28T20:11:23.381Z,8.30
2023-11-28T20:13:50.373Z,8.43
2023-11-28T20:16:17.225Z,8.54
2023-11-28T20:18:44.130Z,8.65
2023-11-28T20:21:11.114Z,8.73
2023-11-28T20:23:42.550Z,8.78
2023-11-28T20:26:09.455Z,8.80
2023-11-28T20:28:36.508Z,8.81
2023-11-28T20:31:03.563Z,8.84
2023-11-28T20:33:38.815Z,8.84
2023-11-28T20:36:08.487Z,8.83
2023-11-28T20:38:36.027Z,8.82
2023-11-28T20:41:04.780Z,8.82
2023-11-28T20:43:31.690Z,8.81
2023-11-28T20:45:58.965Z,8.81
2023-11-28T20:48:25.932Z,8.82
2023-11-28T20:50:53.087Z,8.83
2023-11-28T20:53:21.294Z,8.88
2023-11-28T20:55:48.223Z,8.93
2023-11-28T20:58:15.525Z,8.98
2023-11-28T21:00:42.441Z,9.04
2023-11-28T21:03:09.470Z,9.08
2023-11-28T21:05:36.567Z,9.13
2023-11-28T21:08:05.278Z,9.16
2023-11-28T21:10:34.384Z,9.18
2023-11-28T21:13:01.531Z,9.19
2023-11-28T21:15:28.376Z,9.20
2023-11-28T21:17:55.454Z,9.17
2023-11-28T21:20:22.500Z,9.14
2023-11-28T21:22:52.752Z,9.12
2023-11-28T21:25:22.165Z,9.11
2023-11-28T21:27:50.635Z,9.12
2023-11-28T21:30:22.885Z,9.10
2023-11-28T21:32:50.172Z,9.11
2023-11-28T21:35:17.421Z,9.11
2023-11-28T21:37:45.083Z,9.00
2023-11-28T21:40:12.269Z,8.86
2023-11-28T21:42:39.663Z,8.81
2023-11-28T21:45:06.942Z,8.80
2023-11-28T21:47:36.675Z,8.85
2023-11-28T21:50:10.907Z,8.91
2023-11-28T21:52:39.743Z,8.98
2023-11-28T21:55:07.601Z,9.01
2023-11-28T21:57:34.817Z,9.03
2023-11-28T22:00:01.732Z,9.06
2023-11-28T22:02:38.896Z,9.08
2023-11-28T22:05:05.815Z,9.11
2023-11-28T22:07:32.824Z,9.13
2023-11-28T22:09:59.560Z,9.14
2023-11-28T22:12:26.472Z,9.14
2023-11-28T22:14:53.337Z,9.11
2023-11-28T22:17:20.739Z,9.12
2023-11-28T22:19:47.596Z,9.12
2023-11-28T22:22:14.495Z,9.12
2023-11-28T22:24:41.404Z,9.10
2023-11-28T22:27:09.233Z,9.10
2023-11-28T22:29:38.927Z,9.10
2023-11-28T22:32:05.980Z,9.10
2023-11-28T22:34:32.822Z,9.11
2023-11-28T22:36:59.799Z,9.13
2023-11-28T22:39:26.762Z,9.16
2023-11-28T22:41:53.718Z,9.20
2023-11-28T22:44:20.664Z,9.25
2023-11-28T22:46:47.533Z,9.31
2023-11-28T22:49:14.364Z,9.37
2023-11-28T22:51:41.308Z,9.40
2023-11-28T22:54:08.307Z,9.43
2023-11-28T22:56:35.955Z,9.45
2023-11-28T22:59:16.103Z,9.47
2023-11-28T23:01:44.317Z,9.48
2023-11-28T23:04:11.400Z,9.47
2023-11-28T23:06:38.430Z,9.45
2023-11-28T23:09:05.907Z,9.42
2023-11-28T23:11:33.844Z,9.40
2023-11-28T23:14:02.171Z,9.39
2023-11-28T23:16:29.269Z,9.33
2023-11-28T23:18:56.282Z,9.27
2023-11-28T23:21:23.493Z,9.23
2023-11-28T23:23:50.409Z,9.23
2023-11-28T23:26:18.354Z,9.23
2023-11-28T23:28:45.470Z,9.19
2023-11-28T23:31:12.849Z,9.15
2023-11-28T23:33:39.714Z,9.11
2023-11-28T23:36:07.022Z,9.13
2023-11-28T23:38:33.988Z,9.18
2023-11-28T23:41:00.964Z,9.22
2023-11-28T23:43:27.780Z,9.27
2023-11-28T23:45:54.868Z,9.27
2023-11-28T23:48:22.039Z,9.24
2023-11-28T23:50:51.799Z,9.19
2023-11-28T23:53:18.868Z,9.19
2023-11-28T23:55:45.675Z,9.18
2023-11-28T23:58:12.706Z,9.15
